Terminal Aerodrome Forecast
Issued by NWS La Crosse, WI

Home | Current Version | Previous Version | Text Only | Print | Product List | Glossary On
Versions: 1 2 3 4 5 6 7 8 9 10 11 12 13 14 15
000
FTUS43 KARX 252336
TAFRST
TAF
KRST 252336Z 2600/2624 06009KT 5SM -SHRA BR OVC060
     FM260700 VRB04KT 4SM BR VCSH SCT008 OVC015
     FM260900 34010KT P6SM OVC003
     FM261600 30012G19KT P6SM OVC006
     FM262000 31013KT P6SM OVC013=

USA.gov is the U.S. government's official web portal to all federal, state and local government web resources and services.